createdAt,value
2022-12-20T00:01:57.085Z,10.90
2022-12-20T00:04:25.525Z,10.90
2022-12-20T00:06:53.860Z,11.00
2022-12-20T00:09:22.203Z,11.00
2022-12-20T00:11:50.510Z,11.00
2022-12-20T00:14:20.348Z,11.00
2022-12-20T00:16:48.836Z,10.90
2022-12-20T00:19:17.303Z,11.00
2022-12-20T00:21:45.670Z,11.00
2022-12-20T00:24:14.015Z,11.00
2022-12-20T00:26:42.302Z,11.00
2022-12-20T00:29:10.679Z,10.90
2022-12-20T00:31:40.410Z,11.00
2022-12-20T00:34:08.817Z,10.90
2022-12-20T00:36:37.282Z,10.90
2022-12-20T00:39:05.869Z,10.90
2022-12-20T00:41:35.630Z,10.90
2022-12-20T00:44:05.378Z,10.90
2022-12-20T00:46:34.461Z,10.90
2022-12-20T00:49:04.551Z,10.90
2022-12-20T00:51:33.785Z,10.90
2022-12-20T00:54:02.148Z,10.90
2022-12-20T00:56:30.461Z,10.90
2022-12-20T00:59:00.900Z,10.90
2022-12-20T01:01:32.203Z,10.90
2022-12-20T01:04:01.432Z,10.90
2022-12-20T01:06:32.229Z,11.00
2022-12-20T01:09:01.666Z,10.90
2022-12-20T01:11:32.321Z,11.00
2022-12-20T01:14:04.845Z,10.90
2022-12-20T01:16:36.512Z,11.00
2022-12-20T01:19:06.506Z,11.00
2022-12-20T01:21:36.313Z,11.00
2022-12-20T01:24:05.636Z,11.00
2022-12-20T01:26:33.978Z,11.00
2022-12-20T01:29:02.378Z,11.00
2022-12-20T01:31:32.352Z,11.10
2022-12-20T01:34:02.228Z,11.10
2022-12-20T01:36:33.731Z,11.20
2022-12-20T01:39:06.636Z,11.10
2022-12-20T01:41:36.011Z,11.10
2022-12-20T01:44:07.952Z,11.20
2022-12-20T01:46:37.209Z,11.10
2022-12-20T01:49:11.222Z,11.20
2022-12-20T01:51:44.667Z,11.20
2022-12-20T01:54:18.980Z,11.20
2022-12-20T01:56:52.419Z,11.20
2022-12-20T01:59:21.359Z,11.10
2022-12-20T02:01:49.783Z,11.00
2022-12-20T02:04:18.221Z,10.90
2022-12-20T02:06:46.552Z,10.90
2022-12-20T02:09:16.670Z,10.90
2022-12-20T02:12:05.936Z,10.90
2022-12-20T02:14:52.882Z,10.90
2022-12-20T02:17:36.523Z,11.00
2022-12-20T02:20:51.522Z,11.00
2022-12-20T02:24:04.710Z,11.00
2022-12-20T02:27:22.097Z,11.00
2022-12-20T02:30:11.247Z,11.00
2022-12-20T02:32:48.741Z,11.10
2022-12-20T02:35:25.103Z,11.10
2022-12-20T02:37:56.028Z,11.10
2022-12-20T02:40:29.161Z,11.10
2022-12-20T02:43:02.943Z,11.00
2022-12-20T02:45:37.492Z,10.90
2022-12-20T02:48:11.293Z,10.80
2022-12-20T02:50:46.324Z,10.70
2022-12-20T02:53:15.697Z,10.70
2022-12-20T02:55:49.204Z,10.70
2022-12-20T02:58:28.599Z,10.60
2022-12-20T03:01:04.401Z,10.60
2022-12-20T03:03:34.766Z,10.60
2022-12-20T03:06:03.543Z,10.60
2022-12-20T03:08:32.159Z,10.60
2022-12-20T03:11:00.422Z,10.50
2022-12-20T03:13:28.670Z,10.40
2022-12-20T03:15:58.279Z,10.40
2022-12-20T03:18:26.529Z,10.40
2022-12-20T03:20:54.842Z,10.40
2022-12-20T03:23:23.106Z,10.40
2022-12-20T03:25:51.620Z,10.20
2022-12-20T03:28:19.843Z,10.30
2022-12-20T03:30:48.701Z,10.20
2022-12-20T03:33:18.480Z,10.20
2022-12-20T03:35:47.944Z,10.30
2022-12-20T03:38:16.291Z,10.10
2022-12-20T03:40:44.743Z,10.10
2022-12-20T03:43:12.996Z,10.00
2022-12-20T03:45:41.301Z,10.00
2022-12-20T03:48:09.553Z,10.00
2022-12-20T03:50:39.344Z,10.10
2022-12-20T03:53:07.740Z,10.20
2022-12-20T03:55:36.031Z,10.10
2022-12-20T03:58:04.295Z,10.10
2022-12-20T04:00:32.642Z,10.10
2022-12-20T04:03:00.983Z,10.00
2022-12-20T04:05:29.368Z,10.20
2022-12-20T04:07:58.963Z,10.10
2022-12-20T04:10:27.264Z,10.10
2022-12-20T04:12:55.496Z,10.00
2022-12-20T04:15:23.754Z,10.00
2022-12-20T04:17:54.064Z,10.00
2022-12-20T04:20:24.128Z,10.00
2022-12-20T04:22:53.262Z,10.00
2022-12-20T04:25:23.233Z,10.00
2022-12-20T04:27:51.450Z,10.10
2022-12-20T04:30:19.941Z,9.90
2022-12-20T04:32:48.202Z,10.00
2022-12-20T04:35:16.646Z,9.90
2022-12-20T04:37:44.909Z,10.00
2022-12-20T04:40:14.102Z,9.90
2022-12-20T04:42:43.737Z,9.90
2022-12-20T04:45:12.737Z,9.90
2022-12-20T04:47:41.041Z,9.90
2022-12-20T04:50:10.161Z,10.00
2022-12-20T04:52:55.707Z,10.10
2022-12-20T04:55:24.035Z,10.20
2022-12-20T04:57:53.764Z,10.20
2022-12-20T05:00:22.562Z,10.10
2022-12-20T05:02:51.461Z,10.00
2022-12-20T05:05:20.046Z,10.10
2022-12-20T05:07:48.319Z,10.10
2022-12-20T05:10:16.872Z,10.10
2022-12-20T05:12:46.093Z,10.00
2022-12-20T05:15:15.786Z,10.10
2022-12-20T05:17:44.017Z,10.10
2022-12-20T05:20:14.027Z,10.10
2022-12-20T05:22:59.566Z,10.10
2022-12-20T05:25:45.457Z,10.10
2022-12-20T05:28:13.714Z,10.10
2022-12-20T05:30:43.328Z,10.20
2022-12-20T05:33:12.883Z,10.10
2022-12-20T05:35:41.849Z,10.10
2022-12-20T05:38:10.071Z,10.30
2022-12-20T05:40:38.352Z,10.30
2022-12-20T05:43:07.266Z,10.30
2022-12-20T05:45:36.228Z,10.30
2022-12-20T05:48:06.108Z,10.10
2022-12-20T05:50:34.520Z,10.20
2022-12-20T05:53:09.117Z,10.20
2022-12-20T05:55:40.488Z,10.20
2022-12-20T05:58:09.023Z,10.30
2022-12-20T06:00:37.468Z,10.30
2022-12-20T06:03:07.168Z,10.40
2022-12-20T06:05:35.514Z,10.30
2022-12-20T06:08:03.935Z,10.30
2022-12-20T06:10:32.826Z,10.30
2022-12-20T06:13:01.223Z,10.30
2022-12-20T06:15:30.049Z,10.40
2022-12-20T06:17:58.566Z,10.40
2022-12-20T06:20:28.650Z,10.40
2022-12-20T06:22:56.938Z,10.50
2022-12-20T06:25:25.679Z,10.50
2022-12-20T06:27:53.907Z,10.50
2022-12-20T06:30:22.478Z,10.50
2022-12-20T06:32:50.819Z,10.50
2022-12-20T06:35:19.136Z,10.50
2022-12-20T06:37:48.755Z,10.50
2022-12-20T06:40:17.250Z,10.50
2022-12-20T06:42:45.638Z,10.50
2022-12-20T06:45:14.120Z,10.60
2022-12-20T06:47:42.382Z,10.60
2022-12-20T06:50:10.680Z,10.70
2022-12-20T06:52:38.963Z,10.80
2022-12-20T06:55:09.815Z,10.70
2022-12-20T06:57:38.101Z,10.80
2022-12-20T07:00:08.552Z,10.70
2022-12-20T07:02:36.964Z,10.80
2022-12-20T07:05:05.930Z,10.80
2022-12-20T07:07:38.570Z,10.70
2022-12-20T07:10:12.722Z,10.80
2022-12-20T07:12:47.187Z,10.70
2022-12-20T07:15:16.435Z,10.90
2022-12-20T07:17:45.136Z,10.80
2022-12-20T07:20:14.544Z,10.80
2022-12-20T07:22:43.473Z,10.80
2022-12-20T07:25:13.248Z,10.80
2022-12-20T07:27:41.593Z,10.90
2022-12-20T07:30:10.886Z,10.90
2022-12-20T07:32:39.192Z,10.80
2022-12-20T07:35:08.781Z,10.90
2022-12-20T07:37:37.057Z,10.80
2022-12-20T07:40:07.647Z,10.80
2022-12-20T07:42:40.277Z,10.90
2022-12-20T07:45:11.905Z,10.90
2022-12-20T07:47:40.162Z,10.90
2022-12-20T07:50:11.753Z,10.80
2022-12-20T07:52:44.658Z,10.80
2022-12-20T07:55:14.356Z,10.80
2022-12-20T07:57:47.604Z,10.80
2022-12-20T08:00:18.767Z,10.90
2022-12-20T08:02:55.034Z,10.90
2022-12-20T08:05:24.469Z,10.90
2022-12-20T08:07:58.900Z,10.90
2022-12-20T08:10:28.604Z,11.10
2022-12-20T08:12:59.589Z,11.00
2022-12-20T08:15:29.699Z,11.10
2022-12-20T08:17:57.976Z,11.10
2022-12-20T08:20:26.420Z,11.00
2022-12-20T08:22:54.784Z,11.00
2022-12-20T08:25:23.037Z,11.00
2022-12-20T08:27:51.375Z,11.10
2022-12-20T08:30:21.137Z,11.00
2022-12-20T08:32:49.827Z,11.00
2022-12-20T08:35:18.268Z,11.00
2022-12-20T08:37:46.520Z,11.00
2022-12-20T08:40:15.784Z,11.10
2022-12-20T08:42:44.085Z,11.10
2022-12-20T08:45:13.586Z,11.30
2022-12-20T08:47:43.215Z,11.10
2022-12-20T08:50:13.639Z,11.10
2022-12-20T08:52:41.904Z,11.10
2022-12-20T08:55:12.971Z,11.20
2022-12-20T08:57:41.628Z,11.20
2022-12-20T14:15:33.073Z,11.20
2022-12-20T14:18:07.868Z,11.30
2022-12-20T14:20:38.421Z,11.50
2022-12-20T15:00:03.195Z,11.50
2022-12-20T15:02:40.651Z,11.80
2022-12-20T15:05:26.036Z,11.80
2022-12-20T15:07:54.313Z,11.70
2022-12-20T15:10:23.623Z,11.60
2022-12-20T15:12:51.924Z,11.70
2022-12-20T15:15:29.466Z,11.60
2022-12-20T15:20:26.828Z,11.70
2022-12-20T15:22:55.348Z,11.20
2022-12-20T15:25:23.659Z,11.40
2022-12-20T15:27:51.960Z,11.30
2022-12-20T15:30:22.284Z,11.40
2022-12-20T15:32:55.684Z,11.40
2022-12-20T15:35:25.531Z,11.60
2022-12-20T15:37:53.770Z,11.60
2022-12-20T15:40:22.023Z,11.40
2022-12-20T15:42:50.278Z,11.50
2022-12-20T15:45:18.558Z,11.20
2022-12-20T15:47:49.059Z,11.20
2022-12-20T15:50:17.477Z,11.00
2022-12-20T15:52:45.751Z,11.10
2022-12-20T15:55:13.958Z,11.20
2022-12-20T15:57:42.375Z,11.30
2022-12-20T16:00:13.471Z,11.50
2022-12-20T16:02:42.026Z,11.50
2022-12-20T16:05:14.568Z,11.50
2022-12-20T16:07:42.811Z,11.40
2022-12-20T16:10:15.396Z,11.30
2022-12-20T16:43:03.262Z,11.60
2022-12-20T16:45:34.107Z,11.10
2022-12-20T16:48:02.359Z,11.40
2022-12-20T16:50:31.958Z,11.20
2022-12-20T16:53:00.210Z,11.00
2022-12-20T16:55:32.173Z,11.30
2022-12-20T16:58:04.339Z,11.10
2022-12-20T17:00:32.576Z,11.20
2022-12-20T17:03:01.000Z,11.60
2022-12-20T17:05:35.221Z,11.50
2022-12-20T17:08:03.813Z,11.40
2022-12-20T17:10:32.017Z,11.40
2022-12-20T17:13:00.424Z,11.20
2022-12-20T17:15:32.723Z,11.00
2022-12-20T17:18:00.957Z,11.30
2022-12-20T17:20:35.004Z,11.20
2022-12-20T17:25:58.148Z,11.10
2022-12-20T17:28:27.233Z,11.00
2022-12-20T17:30:55.473Z,10.90
2022-12-20T17:33:23.709Z,11.00
2022-12-20T17:35:51.921Z,11.20
2022-12-20T17:38:22.618Z,11.30
2022-12-20T17:40:50.861Z,11.50
2022-12-20T17:43:19.130Z,11.20
2022-12-20T17:45:47.798Z,11.10
2022-12-20T17:48:16.047Z,11.20
2022-12-20T17:50:44.234Z,11.30
2022-12-20T17:53:13.357Z,11.20
2022-12-20T17:55:42.936Z,11.30
2022-12-20T17:58:11.283Z,11.20
2022-12-20T18:00:39.772Z,11.20
2022-12-20T18:03:12.685Z,11.20
2022-12-20T18:05:48.339Z,11.00
2022-12-20T18:08:17.067Z,11.10
2022-12-20T18:10:46.832Z,11.20
2022-12-20T18:13:15.024Z,11.20
2022-12-20T18:15:43.224Z,11.00
2022-12-20T18:18:11.435Z,11.10
2022-12-20T18:20:39.650Z,10.80
2022-12-20T18:23:07.956Z,11.00
2022-12-20T18:25:36.912Z,11.50
2022-12-20T18:28:07.211Z,11.30
2022-12-20T18:30:36.450Z,11.40
2022-12-20T18:33:04.646Z,11.30
2022-12-20T18:35:32.878Z,11.20
2022-12-20T18:38:01.077Z,11.30
2022-12-20T18:40:29.338Z,11.40
2022-12-20T18:43:01.111Z,11.50
2022-12-20T18:45:37.077Z,11.60
2022-12-20T18:48:05.623Z,11.20
2022-12-20T19:48:21.220Z,11.50
2022-12-20T21:08:33.077Z,11.30
2022-12-20T21:36:09.420Z,11.30
2022-12-20T21:38:39.093Z,11.60
2022-12-20T21:41:11.455Z,11.80
2022-12-20T21:43:40.050Z,11.80
2022-12-20T21:46:11.313Z,11.90
2022-12-20T21:48:40.164Z,12.00
2022-12-20T21:53:44.746Z,12.20
2022-12-20T21:56:13.819Z,12.80
2022-12-20T21:58:42.442Z,12.60
2022-12-20T22:01:11.009Z,12.60
2022-12-20T22:03:39.444Z,12.60
2022-12-20T22:06:08.310Z,12.50
2022-12-20T22:08:36.566Z,12.60
2022-12-20T22:11:09.628Z,12.50
2022-12-20T22:13:42.001Z,12.40
2022-12-20T22:16:12.522Z,12.40
2022-12-20T22:18:42.493Z,12.40
2022-12-20T22:21:14.744Z,12.60
2022-12-20T22:23:44.178Z,12.40
2022-12-20T22:26:16.564Z,12.40
2022-12-20T22:28:47.836Z,12.50
2022-12-20T22:31:17.611Z,12.30
2022-12-20T22:33:46.682Z,12.40
2022-12-20T22:36:17.431Z,12.40
2022-12-20T22:38:46.053Z,12.20
2022-12-20T22:41:18.587Z,12.10
2022-12-20T22:43:48.047Z,12.30
2022-12-20T23:01:20.895Z,12.70
2022-12-20T23:06:21.247Z,13.20
2022-12-20T23:08:49.954Z,13.40
2022-12-20T23:11:39.864Z,13.50
2022-12-20T23:14:31.340Z,13.40
2022-12-20T23:16:59.713Z,13.60
2022-12-20T23:19:28.655Z,13.60
2022-12-20T23:22:14.204Z,13.70
2022-12-20T23:24:42.444Z,13.70
2022-12-20T23:27:12.010Z,13.70
2022-12-20T23:29:40.660Z,13.60
2022-12-20T23:32:08.947Z,13.70
2022-12-20T23:34:37.264Z,13.70
2022-12-20T23:37:05.558Z,13.70
2022-12-20T23:39:33.855Z,13.70
2022-12-20T23:42:02.133Z,13.70
2022-12-20T23:44:31.991Z,13.70
2022-12-20T23:47:00.285Z,13.70
2022-12-20T23:49:28.522Z,13.70
2022-12-20T23:51:56.753Z,13.70
2022-12-20T23:54:25.042Z,13.70
2022-12-20T23:56:53.394Z,13.70
2022-12-20T23:59:21.633Z,13.70
